createdAt,value
2022-12-07T00:02:26.481Z,5.15
2022-12-07T00:05:13.013Z,5.45
2022-12-07T00:07:59.964Z,6.20
2022-12-07T00:10:49.310Z,7.22
2022-12-07T00:13:36.890Z,5.13
2022-12-07T00:16:25.943Z,5.72
2022-12-07T00:19:14.502Z,5.43
2022-12-07T00:22:01.127Z,5.43
2022-12-07T00:24:47.980Z,5.03
2022-12-07T00:27:37.227Z,5.75
2022-12-07T00:30:25.159Z,5.32
2022-12-07T00:33:15.336Z,5.25
2022-12-07T00:36:08.494Z,5.43
2022-12-07T00:38:56.669Z,5.07
2022-12-07T00:44:44.480Z,5.57
2022-12-07T00:47:38.092Z,5.30
2022-12-07T00:50:24.759Z,6.13
2022-12-07T00:53:15.024Z,6.22
2022-12-07T00:56:14.904Z,6.22
2022-12-07T00:59:04.572Z,6.38
2022-12-07T01:01:54.988Z,6.70
2022-12-07T01:04:41.924Z,7.75
2022-12-07T01:07:28.418Z,7.05
2022-12-07T01:10:18.979Z,8.10
2022-12-07T01:13:05.780Z,7.78
2022-12-07T01:15:52.496Z,7.88
2022-12-07T01:18:39.745Z,8.77
2022-12-07T01:21:31.160Z,8.85
2022-12-07T01:24:20.620Z,9.55
2022-12-07T01:27:07.099Z,9.27
2022-12-07T01:29:53.720Z,8.75
2022-12-07T01:32:40.693Z,9.48
2022-12-07T01:35:27.087Z,8.30
2022-12-07T01:38:16.666Z,10.38
2022-12-07T01:41:03.799Z,10.85
2022-12-07T01:44:31.107Z,9.77
2022-12-07T01:47:19.983Z,8.95
2022-12-07T01:50:07.089Z,10.50
2022-12-07T01:52:55.332Z,9.95
2022-12-07T01:55:46.010Z,9.23
2022-12-07T01:58:35.793Z,10.02
2022-12-07T02:01:23.478Z,9.73
2022-12-07T02:04:10.467Z,10.93
2022-12-07T02:06:59.151Z,10.23
2022-12-07T02:09:46.051Z,10.52
2022-12-07T02:12:32.971Z,10.88
2022-12-07T02:15:22.313Z,10.63
2022-12-07T02:18:19.236Z,9.70
2022-12-07T02:21:14.252Z,10.65
2022-12-07T02:24:10.032Z,15.98
2022-12-07T02:27:09.441Z,12.15
2022-12-07T02:29:59.819Z,10.98
2022-12-07T02:32:46.352Z,10.45
2022-12-07T02:35:46.335Z,10.88
2022-12-07T02:38:41.823Z,10.85
2022-12-07T02:41:36.589Z,9.77
2022-12-07T02:44:26.279Z,10.75
2022-12-07T02:47:16.243Z,9.57
2022-12-07T02:50:07.769Z,9.18
2022-12-07T02:52:54.622Z,8.75
2022-12-07T02:55:42.969Z,9.23
2022-12-07T02:58:41.995Z,9.85
2022-12-07T03:01:45.443Z,9.23
2022-12-07T03:04:32.633Z,10.65
2022-12-07T03:07:39.223Z,9.30
2022-12-07T03:10:33.476Z,9.13
2022-12-07T03:13:37.431Z,10.18
2022-12-07T03:16:29.039Z,11.00
2022-12-07T03:19:21.407Z,9.70
2022-12-07T03:22:13.677Z,10.15
2022-12-07T03:25:02.674Z,9.75
2022-12-07T03:27:59.928Z,9.65
2022-12-07T03:30:57.349Z,10.23
2022-12-07T03:33:53.526Z,9.35
2022-12-07T03:37:14.318Z,9.57
2022-12-07T03:40:25.023Z,9.75
2022-12-07T03:43:14.696Z,9.80
2022-12-07T03:46:22.407Z,9.43
2022-12-07T03:49:29.098Z,9.95
2022-12-07T03:52:24.692Z,9.63
2022-12-07T03:55:31.381Z,9.35
2022-12-07T03:58:21.301Z,9.77
2022-12-07T04:01:08.099Z,9.98
2022-12-07T04:03:55.275Z,9.13
2022-12-07T04:06:42.812Z,9.00
2022-12-07T04:09:33.633Z,9.18
2022-12-07T04:12:23.753Z,9.05
2022-12-07T04:15:11.424Z,8.90
2022-12-07T04:18:00.780Z,7.70
2022-12-07T04:20:50.616Z,6.90
2022-12-07T04:23:37.268Z,7.63
2022-12-07T04:26:26.692Z,9.77
2022-12-07T04:29:16.491Z,7.53
2022-12-07T04:32:03.749Z,13.57
2022-12-07T04:34:55.377Z,11.20
2022-12-07T04:37:45.635Z,10.30
2022-12-07T04:40:32.130Z,10.98
2022-12-07T04:43:20.725Z,9.98
2022-12-07T04:46:07.141Z,7.55
2022-12-07T04:48:57.194Z,8.23
2022-12-07T04:51:48.084Z,7.78
2022-12-07T04:54:35.469Z,7.75
2022-12-07T04:57:24.096Z,7.28
2022-12-07T05:00:11.727Z,9.52
2022-12-07T05:03:01.138Z,7.68
2022-12-07T05:05:47.863Z,8.80
2022-12-07T05:08:36.355Z,7.63
2022-12-07T05:11:41.449Z,8.15
2022-12-07T05:14:28.422Z,6.93
2022-12-07T05:17:15.428Z,5.88
2022-12-07T05:20:06.531Z,8.52
2022-12-07T05:22:54.241Z,13.02
2022-12-07T05:25:46.143Z,8.05
2022-12-07T05:28:33.263Z,10.60
2022-12-07T05:31:25.012Z,11.75
2022-12-07T05:34:12.216Z,12.52
2022-12-07T05:37:04.125Z,10.63
2022-12-07T05:39:50.844Z,13.10
2022-12-07T05:42:38.322Z,12.77
2022-12-07T05:45:25.624Z,11.57
2022-12-07T05:48:12.666Z,8.52
2022-12-07T05:50:59.961Z,9.25
2022-12-07T05:53:47.036Z,8.57
2022-12-07T05:56:34.148Z,8.77
2022-12-07T05:59:23.616Z,8.60
2022-12-07T06:02:14.237Z,9.48
2022-12-07T06:05:16.616Z,10.65
2022-12-07T06:08:06.093Z,11.43
2022-12-07T06:11:12.843Z,11.38
2022-12-07T06:13:59.764Z,10.75
2022-12-07T06:16:47.392Z,12.68
2022-12-07T06:19:34.676Z,9.10
2022-12-07T06:22:23.916Z,7.80
2022-12-07T06:25:14.671Z,10.50
2022-12-07T06:28:01.281Z,9.00
2022-12-07T06:30:48.027Z,10.25
2022-12-07T06:33:34.452Z,11.57
2022-12-07T06:36:27.056Z,13.73
2022-12-07T06:39:16.073Z,16.05
2022-12-07T06:42:03.280Z,13.65
2022-12-07T06:44:49.448Z,11.00
2022-12-07T06:47:42.049Z,16.42
2022-12-07T06:50:34.869Z,10.90
2022-12-07T06:53:22.072Z,15.68
2022-12-07T06:56:09.181Z,13.18
2022-12-07T06:58:56.331Z,12.57
2022-12-07T07:01:42.982Z,11.20
2022-12-07T07:04:30.374Z,11.10
2022-12-07T07:07:16.781Z,11.07
2022-12-07T07:10:03.728Z,13.57
2022-12-07T07:12:54.328Z,14.88
2022-12-07T07:15:43.974Z,15.75
2022-12-07T07:18:31.009Z,13.13
2022-12-07T07:21:18.060Z,12.63
2022-12-07T07:24:05.155Z,16.48
2022-12-07T07:26:54.386Z,15.20
2022-12-07T07:29:41.071Z,14.23
2022-12-07T07:32:28.036Z,14.25
2022-12-07T07:35:15.305Z,16.40
2022-12-07T07:38:04.360Z,11.73
2022-12-07T07:40:50.934Z,11.95
2022-12-07T07:43:38.037Z,11.05
2022-12-07T07:46:24.326Z,11.10
2022-12-07T07:49:12.107Z,10.57
2022-12-07T07:52:00.665Z,9.65
2022-12-07T07:54:48.216Z,11.95
2022-12-07T07:57:34.855Z,10.88
2022-12-07T08:00:21.737Z,17.98
2022-12-07T08:03:08.325Z,11.07
2022-12-07T08:05:55.452Z,11.70
2022-12-07T08:08:41.899Z,11.73
2022-12-07T08:11:29.149Z,10.48
2022-12-07T08:14:15.541Z,9.80
2022-12-07T08:17:02.303Z,11.43
2022-12-07T08:19:52.019Z,10.05
2022-12-07T08:22:38.739Z,9.35
2022-12-07T08:25:25.412Z,9.65
2022-12-07T08:28:12.593Z,10.10
2022-12-07T08:31:06.733Z,10.38
2022-12-07T08:33:53.442Z,9.02
2022-12-07T08:36:39.554Z,9.02
2022-12-07T08:39:33.630Z,7.78
2022-12-07T08:42:19.756Z,9.35
2022-12-07T08:45:07.793Z,8.88
2022-12-07T08:47:56.121Z,9.30
2022-12-07T08:50:49.116Z,9.48
2022-12-07T08:53:36.634Z,9.93
2022-12-07T08:56:23.561Z,8.77
2022-12-07T08:59:10.248Z,13.02
2022-12-07T09:01:58.869Z,18.75
2022-12-07T09:04:45.153Z,58.30
2022-12-07T09:07:34.504Z,64.00
2022-12-07T09:10:22.050Z,21.65
2022-12-07T09:13:08.832Z,16.95
2022-12-07T09:15:55.437Z,10.70
2022-12-07T09:18:42.950Z,17.17
2022-12-07T09:21:31.675Z,33.42
2022-12-07T09:24:19.509Z,39.30
2022-12-07T09:27:08.530Z,26.17
2022-12-07T09:29:55.224Z,20.08
2022-12-07T09:32:41.988Z,19.60
2022-12-07T09:35:31.986Z,21.15
2022-12-07T09:38:19.332Z,28.73
2022-12-07T09:41:09.424Z,13.10
2022-12-07T09:44:04.095Z,13.15
2022-12-07T09:47:01.125Z,10.48
2022-12-07T09:49:47.444Z,31.98
2022-12-07T09:52:38.874Z,15.27
2022-12-07T09:55:29.516Z,15.68
2022-12-07T09:58:30.138Z,13.18
2022-12-07T10:01:19.771Z,26.13
2022-12-07T10:04:16.520Z,45.08
2022-12-07T10:07:06.333Z,18.27
2022-12-07T10:09:53.037Z,42.83
2022-12-07T10:12:59.871Z,24.38
2022-12-07T10:16:10.131Z,23.55
2022-12-07T10:18:57.746Z,21.83
2022-12-07T10:22:00.306Z,18.38
2022-12-07T10:24:49.082Z,26.38
2022-12-07T10:27:35.391Z,23.13
2022-12-07T10:30:22.341Z,24.80
2022-12-07T10:33:30.352Z,28.02
2022-12-07T10:36:23.197Z,28.42
2022-12-07T10:39:15.340Z,30.55
2022-12-07T10:42:04.751Z,29.35
2022-12-07T10:45:14.039Z,22.30
2022-12-07T10:48:18.534Z,16.02
2022-12-07T10:51:11.138Z,18.67
2022-12-07T10:53:57.852Z,20.88
2022-12-07T10:56:52.689Z,21.45
2022-12-07T10:59:48.675Z,17.85
2022-12-07T11:02:50.356Z,15.02
2022-12-07T11:05:37.240Z,14.98
2022-12-07T11:09:04.883Z,13.25
2022-12-07T11:12:13.894Z,12.15
2022-12-07T11:15:09.539Z,12.20
2022-12-07T11:18:02.303Z,14.88
2022-12-07T11:20:50.871Z,14.85
2022-12-07T11:23:59.429Z,15.98
2022-12-07T11:27:21.287Z,14.02
2022-12-07T11:30:33.735Z,14.13
2022-12-07T11:33:35.704Z,13.98
2022-12-07T11:36:48.207Z,12.70
2022-12-07T11:39:53.657Z,15.82
2022-12-07T11:45:36.293Z,13.70
2022-12-07T11:48:29.911Z,13.20
2022-12-07T11:51:20.160Z,19.45
2022-12-07T11:54:17.829Z,12.68
2022-12-07T11:57:14.392Z,10.90
2022-12-07T12:00:11.403Z,11.63
2022-12-07T12:03:11.018Z,14.85
2022-12-07T12:05:58.318Z,14.38
2022-12-07T12:15:41.201Z,15.98
2022-12-07T12:18:45.905Z,15.25
2022-12-07T12:21:42.712Z,14.43
2022-12-07T12:24:37.582Z,13.60
2022-12-07T12:27:32.818Z,12.52
2022-12-07T12:30:58.634Z,15.15
2022-12-07T12:33:51.107Z,12.75
2022-12-07T12:36:44.142Z,13.77
2022-12-07T12:39:30.683Z,12.00
2022-12-07T12:42:19.756Z,11.32
2022-12-07T12:45:28.153Z,11.50
2022-12-07T12:48:30.727Z,13.80
2022-12-07T12:51:40.615Z,14.93
2022-12-07T12:54:31.502Z,17.63
2022-12-07T12:57:26.911Z,13.63
2022-12-07T13:00:21.902Z,15.13
2022-12-07T13:03:26.104Z,20.52
2022-12-07T13:06:28.303Z,16.40
2022-12-07T13:09:46.984Z,16.15
2022-12-07T13:12:36.086Z,25.98
2022-12-07T13:16:14.269Z,17.63
2022-12-07T13:19:44.121Z,17.75
2022-12-07T13:22:39.169Z,15.50
2022-12-07T13:25:33.119Z,14.70
2022-12-07T13:28:20.411Z,14.93
2022-12-07T13:31:26.636Z,13.27
2022-12-07T13:34:36.249Z,15.45
2022-12-07T13:37:36.695Z,17.65
2022-12-07T13:40:25.703Z,14.10
2022-12-07T13:43:16.776Z,14.05
2022-12-07T13:46:03.209Z,15.38
2022-12-07T13:48:51.445Z,14.07
2022-12-07T13:51:38.346Z,16.13
2022-12-07T13:54:25.439Z,13.50
2022-12-07T13:57:11.924Z,13.10
2022-12-07T13:59:59.180Z,15.73
2022-12-07T14:07:23.681Z,11.43
2022-12-07T14:10:50.800Z,11.55
2022-12-07T14:13:42.837Z,12.88
2022-12-07T14:16:30.761Z,17.13
2022-12-07T14:19:49.426Z,12.30
2022-12-07T14:22:38.166Z,10.60
2022-12-07T14:25:28.532Z,12.18
2022-12-07T14:28:30.147Z,10.07
2022-12-07T14:31:29.873Z,11.02
2022-12-07T14:34:24.128Z,11.00
2022-12-07T14:37:13.969Z,15.48
2022-12-07T14:40:00.523Z,10.25
2022-12-07T14:42:49.219Z,9.77
2022-12-07T14:45:38.283Z,10.43
2022-12-07T14:54:38.704Z,10.50
2022-12-07T14:57:27.164Z,8.63
2022-12-07T15:00:18.308Z,7.57
2022-12-07T15:03:05.153Z,7.80
2022-12-07T15:05:51.962Z,7.35
2022-12-07T15:08:38.278Z,6.80
2022-12-07T15:11:25.482Z,10.88
2022-12-07T15:14:13.441Z,17.02
2022-12-07T15:17:10.501Z,12.20
2022-12-07T15:32:08.477Z,10.95
2022-12-07T15:35:23.171Z,10.13
2022-12-07T15:39:11.922Z,9.88
2022-12-07T15:42:13.821Z,10.40
2022-12-07T15:45:23.751Z,8.65
2022-12-07T15:49:14.804Z,8.32
2022-12-07T15:52:50.255Z,11.02
2022-12-07T15:56:20.153Z,14.80
2022-12-07T15:59:19.936Z,10.18
2022-12-07T16:02:25.641Z,7.68
2022-12-07T16:09:34.449Z,7.88
2022-12-07T16:12:44.643Z,6.68
2022-12-07T16:16:11.645Z,6.80
2022-12-07T16:19:01.557Z,7.43
2022-12-07T16:22:11.513Z,7.32
2022-12-07T16:25:08.759Z,10.73
2022-12-07T16:28:43.272Z,8.68
2022-12-07T16:32:06.472Z,8.50
2022-12-07T16:35:17.601Z,8.05
2022-12-07T16:38:52.052Z,7.75
2022-12-07T16:41:39.841Z,9.43
2022-12-07T16:45:19.152Z,8.73
2022-12-07T16:48:45.401Z,8.85
2022-12-07T16:51:42.455Z,8.88
2022-12-07T16:54:52.181Z,11.30
2022-12-07T17:02:14.647Z,11.55
2022-12-07T17:05:50.150Z,10.02
2022-12-07T17:08:50.768Z,11.60
2022-12-07T17:11:37.904Z,12.00
2022-12-07T17:14:52.600Z,10.20
2022-12-07T17:18:35.792Z,10.00
2022-12-07T17:21:54.434Z,12.73
2022-12-07T17:24:46.774Z,11.77
2022-12-07T17:27:57.954Z,30.40
2022-12-07T17:31:11.025Z,18.00
2022-12-07T17:34:17.722Z,9.90
2022-12-07T17:40:54.671Z,6.57
2022-12-07T17:44:06.731Z,6.50
2022-12-07T17:47:41.163Z,6.65
2022-12-07T17:51:17.245Z,9.68
2022-12-07T17:54:44.711Z,5.60
2022-12-07T17:58:50.781Z,6.55
2022-12-07T18:10:00.906Z,8.57
2022-12-07T18:12:52.097Z,7.75
2022-12-07T18:15:39.082Z,8.50
2022-12-07T18:18:26.025Z,8.13
2022-12-07T18:21:16.339Z,7.47
2022-12-07T18:24:05.001Z,8.63
2022-12-07T18:26:55.273Z,9.98
2022-12-07T18:29:42.503Z,9.77
2022-12-07T18:32:31.082Z,9.52
2022-12-07T18:35:17.653Z,10.13
2022-12-07T18:38:04.475Z,9.05
2022-12-07T18:40:51.148Z,7.78
2022-12-07T18:43:37.213Z,8.50
2022-12-07T18:46:24.379Z,8.50
2022-12-07T18:49:19.907Z,9.18
2022-12-07T18:52:08.949Z,7.55
2022-12-07T20:29:43.214Z,8.75
2022-12-07T20:37:28.785Z,10.48
2022-12-07T20:59:28.393Z,11.73
2022-12-07T21:02:33.426Z,10.55
2022-12-07T21:06:10.999Z,11.60
2022-12-07T21:09:15.455Z,11.68
2022-12-07T21:12:18.540Z,9.00
2022-12-07T21:18:39.307Z,8.20
2022-12-07T21:23:46.878Z,8.52
2022-12-07T21:30:23.911Z,9.05
2022-12-07T21:37:50.775Z,7.47
2022-12-07T21:41:27.833Z,6.35
2022-12-07T22:13:01.813Z,9.63
2022-12-07T22:35:38.345Z,9.30
2022-12-07T22:39:37.761Z,7.82
2022-12-07T22:42:52.965Z,8.57
2022-12-07T22:46:46.403Z,8.50
2022-12-07T22:54:29.226Z,7.60
2022-12-07T22:57:51.960Z,7.05
2022-12-07T23:01:47.539Z,6.78
2022-12-07T23:05:41.048Z,5.00
2022-12-07T23:09:15.787Z,4.05
2022-12-07T23:13:03.026Z,4.78
2022-12-07T23:20:52.419Z,3.05
2022-12-07T23:28:37.669Z,3.33
2022-12-07T23:31:35.079Z,2.83
2022-12-07T23:38:39.477Z,3.80
2022-12-07T23:57:58.785Z,5.45
